Time;durP1;ratioP1;P1;durP2;ratioP2;P2;SDS_P1;SDS_P2;PMS_P1;PMS_P2;Temp;Humidity;BMP_temperature;BMP_pressure;BME280_temperature;BME280_humidity;BME280_pressure;Samples;Min_cycle;Max_cycle;Signal;HPM_P1;HPM_P2
2023/07/24 00:00:59;;;;;;;14.73;8.80;;;;;;;;;;4980813;28;20500;-49
2023/07/24 00:03:24;;;;;;;13.93;8.90;;;;;;;;;;4988254;28;20037;-49
2023/07/24 00:05:50;;;;;;;14.65;8.45;;;;;;;;;;4990621;28;20038;-48
2023/07/24 00:08:15;;;;;;;12.45;8.52;;;;;;;;;;4993121;28;20037;-47
2023/07/24 00:10:40;;;;;;;14.02;8.23;;;;;;;;;;4996415;28;20030;-47
2023/07/24 00:13:07;;;;;;;13.70;8.07;;;;;;;;;;4992713;28;20034;-49
2023/07/24 00:15:32;;;;;;;15.70;8.90;;;;;;;;;;4984954;28;20046;-51
2023/07/24 00:17:58;;;;;;;15.18;8.20;;;;;;;;;;4985099;28;20031;-50
2023/07/24 00:20:24;;;;;;;11.68;8.05;;;;;;;;;;4993606;28;20041;-48
2023/07/24 00:22:50;;;;;;;20.13;8.82;;;;;;;;;;4994851;28;20026;-50
2023/07/24 00:25:15;;;;;;;12.40;7.65;;;;;;;;;;4993439;28;20404;-46
2023/07/24 00:27:41;;;;;;;16.85;8.07;;;;;;;;;;4973319;28;20030;-46
2023/07/24 00:30:07;;;;;;;13.05;7.95;;;;;;;;;;4995913;28;20100;-45
2023/07/24 00:32:32;;;;;;;10.20;6.95;;;;;;;;;;4989348;28;20022;-47
2023/07/24 00:34:57;;;;;;;10.18;6.45;;;;;;;;;;4990999;28;20393;-48
2023/07/24 00:37:24;;;;;;;11.95;7.57;;;;;;;;;;4992357;28;21393;-46
2023/07/24 00:39:49;;;;;;;14.40;6.78;;;;;;;;;;4983031;28;20034;-46
2023/07/24 00:42:14;;;;;;;12.10;7.57;;;;;;;;;;4983588;28;20461;-47
2023/07/24 00:44:40;;;;;;;9.05;5.80;;;;;;;;;;4986195;28;20031;-49
2023/07/24 00:47:05;;;;;;;9.15;6.15;;;;;;;;;;4987243;28;20023;-50
2023/07/24 00:49:31;;;;;;;8.75;5.45;;;;;;;;;;4994830;28;20070;-46
2023/07/24 00:51:56;;;;;;;8.30;5.05;;;;;;;;;;4994039;28;20046;-49
2023/07/24 00:54:23;;;;;;;8.48;5.28;;;;;;;;;;4994050;28;20038;-49
2023/07/24 00:56:49;;;;;;;9.20;5.32;;;;;;;;;;4992118;28;20038;-49
2023/07/24 00:59:15;;;;;;;10.48;5.50;;;;;;;;;;4995764;28;20026;-48
2023/07/24 01:01:42;;;;;;;10.65;5.45;;;;;;;;;;4995619;28;20042;-47
2023/07/24 01:04:08;;;;;;;9.73;5.63;;;;;;;;;;4994661;28;20058;-48
2023/07/24 01:06:33;;;;;;;10.63;5.03;;;;;;;;;;4988230;28;20053;-46
2023/07/24 01:08:59;;;;;;;8.82;4.82;;;;;;;;;;4992771;28;20109;-47
2023/07/24 01:11:26;;;;;;;10.57;4.80;;;;;;;;;;4993350;28;20046;-46
2023/07/24 01:13:59;;;;;;;5.57;4.95;;;;;;;;;;4995666;28;20031;-48
2023/07/24 01:16:33;;;;;;;7.63;5.47;;;;;;;;;;4990686;28;20045;-48
2023/07/24 01:19:01;;;;;;;8.88;4.78;;;;;;;;;;4995244;28;20026;-46
2023/07/24 01:21:38;;;;;;;7.20;4.85;;;;;;;;;;4992384;28;20061;-47
2023/07/24 01:24:21;;;;;;;8.18;4.65;;;;;;;;;;4990024;28;20030;-47
2023/07/24 01:26:47;;;;;;;6.65;4.55;;;;;;;;;;4993385;28;20050;-48
2023/07/24 01:29:12;;;;;;;6.75;4.88;;;;;;;;;;4990043;28;20095;-46
2023/07/24 01:31:37;;;;;;;4.90;4.07;;;;;;;;;;5006356;28;20046;-47
2023/07/24 01:34:03;;;;;;;8.85;4.93;;;;;;;;;;4994349;28;20050;-47
2023/07/24 01:36:28;;;;;;;15.27;5.15;;;;;;;;;;4985599;28;20085;-50
2023/07/24 01:38:54;;;;;;;12.35;4.57;;;;;;;;;;4977856;28;20033;-46
2023/07/24 01:41:19;;;;;;;6.07;4.47;;;;;;;;;;4982221;28;20043;-48
2023/07/24 01:43:45;;;;;;;9.50;4.65;;;;;;;;;;4995275;28;20038;-46
2023/07/24 01:46:11;;;;;;;13.18;4.63;;;;;;;;;;4993040;28;20050;-49
2023/07/24 01:48:36;;;;;;;10.43;4.53;;;;;;;;;;4990791;28;20030;-46
2023/07/24 01:51:02;;;;;;;7.55;4.40;;;;;;;;;;4994352;28;20046;-48
2023/07/24 01:53:27;;;;;;;6.50;4.78;;;;;;;;;;4979734;28;20030;-47
2023/07/24 01:55:52;;;;;;;8.20;4.88;;;;;;;;;;4990643;28;20046;-49
2023/07/24 01:58:18;;;;;;;8.48;4.80;;;;;;;;;;4991096;28;20042;-46
2023/07/24 02:00:43;;;;;;;12.18;4.72;;;;;;;;;;4990106;28;20579;-47
2023/07/24 02:03:09;;;;;;;6.03;4.95;;;;;;;;;;4998655;28;20038;-46
2023/07/24 02:05:35;;;;;;;9.70;4.68;;;;;;;;;;4979056;28;20082;-50
2023/07/24 02:08:00;;;;;;;5.80;4.57;;;;;;;;;;4992550;28;20031;-48
2023/07/24 02:10:26;;;;;;;6.45;4.50;;;;;;;;;;4995665;28;20056;-50
2023/07/24 02:12:51;;;;;;;6.50;4.63;;;;;;;;;;4996102;28;20057;-47
2023/07/24 02:15:17;;;;;;;4.93;4.45;;;;;;;;;;4991108;28;20552;-48
2023/07/24 02:17:42;;;;;;;7.03;4.47;;;;;;;;;;4984497;28;20117;-48
2023/07/24 02:20:08;;;;;;;5.88;4.60;;;;;;;;;;4993606;28;20113;-47
2023/07/24 02:22:33;;;;;;;8.27;5.15;;;;;;;;;;4998584;28;20030;-48
2023/07/24 02:24:59;;;;;;;5.20;4.70;;;;;;;;;;4994042;28;20100;-48
2023/07/24 02:27:29;;;;;;;4.90;4.40;;;;;;;;;;4997287;28;20486;-49
2023/07/24 02:29:55;;;;;;;17.47;4.80;;;;;;;;;;4993872;28;20103;-47
2023/07/24 02:32:22;;;;;;;10.77;4.95;;;;;;;;;;4997660;28;20121;-47
2023/07/24 02:34:52;;;;;;;6.38;4.70;;;;;;;;;;4996936;28;20097;-49
2023/07/24 02:37:18;;;;;;;7.88;4.78;;;;;;;;;;4990146;28;20427;-46
2023/07/24 02:39:43;;;;;;;10.73;4.68;;;;;;;;;;4993829;28;20045;-46
2023/07/24 02:42:09;;;;;;;5.05;4.43;;;;;;;;;;4978634;28;20034;-48
2023/07/24 02:44:35;;;;;;;5.60;4.60;;;;;;;;;;4985782;28;20480;-48
2023/07/24 02:47:00;;;;;;;5.35;4.25;;;;;;;;;;4994687;28;20042;-46
2023/07/24 02:49:26;;;;;;;5.85;4.72;;;;;;;;;;4997671;28;20538;-46
2023/07/24 02:51:51;;;;;;;7.28;4.43;;;;;;;;;;4996871;28;20532;-46
2023/07/24 02:54:16;;;;;;;5.72;4.07;;;;;;;;;;4960613;28;20037;-48
2023/07/24 02:56:42;;;;;;;12.02;4.65;;;;;;;;;;4973575;28;20223;-46
2023/07/24 02:59:07;;;;;;;4.85;4.35;;;;;;;;;;4991259;28;20113;-47
2023/07/24 03:01:33;;;;;;;7.75;4.38;;;;;;;;;;4993713;28;20108;-47
2023/07/24 03:03:58;;;;;;;8.00;4.43;;;;;;;;;;4997600;28;20033;-47
2023/07/24 03:06:23;;;;;;;14.43;4.85;;;;;;;;;;4994946;28;20037;-48
2023/07/24 03:08:49;;;;;;;6.43;4.90;;;;;;;;;;4986651;28;20037;-46
2023/07/24 03:11:14;;;;;;;7.40;5.22;;;;;;;;;;4983815;28;20030;-46
2023/07/24 03:13:40;;;;;;;10.05;4.78;;;;;;;;;;4996351;28;20022;-46
2023/07/24 03:16:06;;;;;;;6.85;4.85;;;;;;;;;;4990223;28;20073;-46
2023/07/24 03:18:31;;;;;;;8.45;5.13;;;;;;;;;;4985273;28;20023;-48
2023/07/24 03:20:58;;;;;;;5.75;4.50;;;;;;;;;;4991998;28;20042;-46
2023/07/24 03:23:24;;;;;;;6.07;4.72;;;;;;;;;;4983862;28;20053;-46
2023/07/24 03:25:49;;;;;;;11.25;4.90;;;;;;;;;;4991396;28;20050;-46
2023/07/24 03:28:15;;;;;;;12.93;4.78;;;;;;;;;;4994227;28;20030;-48
2023/07/24 03:30:40;;;;;;;5.00;4.50;;;;;;;;;;4983411;28;20043;-47
2023/07/24 03:33:07;;;;;;;7.35;4.30;;;;;;;;;;4995323;28;20054;-48
2023/07/24 03:35:32;;;;;;;6.88;4.28;;;;;;;;;;4990725;28;20049;-46
2023/07/24 03:37:58;;;;;;;7.85;4.50;;;;;;;;;;4990358;28;20034;-46
2023/07/24 03:40:23;;;;;;;7.60;3.85;;;;;;;;;;4996623;28;20030;-47
2023/07/24 03:42:48;;;;;;;5.57;4.30;;;;;;;;;;4986983;28;20027;-47
2023/07/24 03:45:14;;;;;;;11.10;4.57;;;;;;;;;;4988576;28;20034;-48
2023/07/24 03:47:39;;;;;;;11.65;4.72;;;;;;;;;;4992029;28;20516;-46
2023/07/24 03:50:05;;;;;;;15.40;4.60;;;;;;;;;;4992836;28;20572;-46
2023/07/24 03:52:30;;;;;;;9.95;4.25;;;;;;;;;;4996574;28;20030;-47
2023/07/24 03:54:56;;;;;;;6.55;4.60;;;;;;;;;;4985656;28;20015;-46
2023/07/24 03:57:21;;;;;;;6.82;4.30;;;;;;;;;;4996804;28;20087;-46
2023/07/24 03:59:47;;;;;;;8.15;4.20;;;;;;;;;;4995439;28;20519;-48
2023/07/24 04:02:12;;;;;;;4.88;4.18;;;;;;;;;;4994347;28;20053;-48
2023/07/24 04:04:37;;;;;;;7.90;4.45;;;;;;;;;;4986199;28;20033;-42
2023/07/24 04:07:04;;;;;;;8.15;4.20;;;;;;;;;;4980164;28;20030;-45
2023/07/24 04:09:29;;;;;;;7.43;4.38;;;;;;;;;;4990406;28;20026;-47
2023/07/24 04:11:55;;;;;;;11.05;4.80;;;;;;;;;;4996688;28;20045;-47
2023/07/24 04:14:20;;;;;;;4.55;4.10;;;;;;;;;;4988548;28;20373;-46
2023/07/24 04:16:45;;;;;;;5.85;4.65;;;;;;;;;;4983979;28;20843;-46
2023/07/24 04:19:11;;;;;;;8.77;4.95;;;;;;;;;;4995838;28;20053;-46
2023/07/24 04:21:36;;;;;;;6.47;4.53;;;;;;;;;;4993296;28;20532;-46
2023/07/24 04:24:02;;;;;;;10.70;4.70;;;;;;;;;;4996887;28;20022;-47
2023/07/24 04:26:27;;;;;;;7.63;4.95;;;;;;;;;;4990798;28;20053;-47
2023/07/24 04:28:53;;;;;;;7.47;4.50;;;;;;;;;;4995191;28;20077;-47
2023/07/24 04:31:18;;;;;;;5.47;4.72;;;;;;;;;;4996004;28;20034;-48
2023/07/24 04:33:43;;;;;;;8.32;4.78;;;;;;;;;;4991636;28;20103;-45
2023/07/24 04:36:09;;;;;;;11.68;4.32;;;;;;;;;;4991598;28;20034;-46
2023/07/24 04:38:34;;;;;;;7.30;4.53;;;;;;;;;;4982780;28;20028;-46
2023/07/24 04:41:02;;;;;;;11.27;4.82;;;;;;;;;;4990890;28;20046;-47
2023/07/24 04:43:29;;;;;;;9.52;4.55;;;;;;;;;;4981367;28;20022;-48
2023/07/24 04:45:54;;;;;;;6.68;4.40;;;;;;;;;;4994130;28;20106;-50
2023/07/24 04:48:20;;;;;;;8.60;4.15;;;;;;;;;;4995268;28;20531;-46
2023/07/24 04:50:45;;;;;;;14.00;4.63;;;;;;;;;;4991439;28;20046;-45
2023/07/24 04:53:11;;;;;;;7.03;3.90;;;;;;;;;;4993374;28;20022;-47
2023/07/24 04:55:36;;;;;;;7.43;4.40;;;;;;;;;;4974316;28;20039;-47
2023/07/24 04:58:02;;;;;;;13.63;4.90;;;;;;;;;;4983648;28;20026;-46
2023/07/24 05:00:27;;;;;;;9.45;4.45;;;;;;;;;;5003689;28;20539;-46
2023/07/24 05:02:52;;;;;;;11.10;4.57;;;;;;;;;;4978833;28;20571;-49
2023/07/24 05:05:18;;;;;;;5.95;4.53;;;;;;;;;;4987180;28;20054;-46
2023/07/24 05:07:43;;;;;;;9.77;4.47;;;;;;;;;;4996555;28;20054;-46
2023/07/24 05:10:09;;;;;;;5.18;4.30;;;;;;;;;;4994464;28;20046;-49
2023/07/24 05:12:34;;;;;;;9.18;4.80;;;;;;;;;;4987408;28;20027;-49
2023/07/24 05:14:59;;;;;;;8.50;4.22;;;;;;;;;;4998585;28;20092;-52
2023/07/24 05:17:25;;;;;;;7.93;4.30;;;;;;;;;;4986767;28;20057;-47
2023/07/24 05:19:50;;;;;;;6.80;3.85;;;;;;;;;;4998001;28;20026;-49
2023/07/24 05:22:15;;;;;;;7.85;4.57;;;;;;;;;;4998105;28;20380;-48
2023/07/24 05:24:41;;;;;;;10.43;4.45;;;;;;;;;;4997466;28;20034;-48
2023/07/24 05:27:06;;;;;;;5.40;3.90;;;;;;;;;;4997029;28;20061;-48
2023/07/24 05:29:32;;;;;;;10.60;4.55;;;;;;;;;;4998036;28;20061;-48
2023/07/24 05:31:58;;;;;;;12.63;4.50;;;;;;;;;;4996946;28;20042;-49
2023/07/24 05:34:24;;;;;;;5.65;4.35;;;;;;;;;;4999489;28;20616;-47
2023/07/24 05:36:50;;;;;;;4.72;3.95;;;;;;;;;;4997137;28;20093;-47
2023/07/24 05:39:15;;;;;;;5.93;3.92;;;;;;;;;;4981731;28;20472;-51
2023/07/24 05:41:40;;;;;;;6.53;4.30;;;;;;;;;;4974114;28;20050;-48
2023/07/24 05:44:06;;;;;;;6.18;4.30;;;;;;;;;;4991937;28;20396;-46
2023/07/24 05:46:31;;;;;;;7.50;4.10;;;;;;;;;;4996813;28;20050;-50
2023/07/24 05:48:57;;;;;;;11.13;4.88;;;;;;;;;;4996525;28;20088;-49
2023/07/24 05:51:22;;;;;;;11.10;3.97;;;;;;;;;;4998125;28;20105;-51
2023/07/24 05:53:48;;;;;;;5.32;3.88;;;;;;;;;;4997541;28;20023;-47
2023/07/24 05:56:13;;;;;;;11.55;4.03;;;;;;;;;;4986146;28;20581;-46
2023/07/24 05:58:39;;;;;;;6.65;3.90;;;;;;;;;;4982482;28;20039;-49
2023/07/24 06:01:04;;;;;;;6.97;4.32;;;;;;;;;;4995647;28;20038;-48
2023/07/24 06:03:30;;;;;;;9.27;3.85;;;;;;;;;;4997371;28;20034;-49
2023/07/24 06:05:56;;;;;;;7.68;3.92;;;;;;;;;;4986532;28;20038;-48
2023/07/24 06:08:22;;;;;;;10.95;4.20;;;;;;;;;;4994158;28;20030;-48
2023/07/24 06:10:48;;;;;;;6.07;3.88;;;;;;;;;;4996937;28;20501;-49
2023/07/24 06:13:18;;;;;;;4.38;3.97;;;;;;;;;;4990857;28;20476;-51
2023/07/24 06:15:43;;;;;;;5.00;4.30;;;;;;;;;;4995104;28;20049;-52
2023/07/24 06:18:10;;;;;;;4.65;3.72;;;;;;;;;;4988506;28;20034;-47
2023/07/24 06:20:35;;;;;;;5.80;4.25;;;;;;;;;;4983832;28;20042;-47
2023/07/24 06:23:02;;;;;;;6.05;4.03;;;;;;;;;;4995932;28;20033;-49
2023/07/24 06:25:27;;;;;;;7.45;4.35;;;;;;;;;;4997105;28;20065;-49
2023/07/24 06:27:53;;;;;;;10.65;4.18;;;;;;;;;;4988019;28;20034;-46
2023/07/24 06:30:18;;;;;;;6.80;4.05;;;;;;;;;;4994572;28;20039;-48
2023/07/24 06:32:43;;;;;;;10.50;4.30;;;;;;;;;;4990434;28;20018;-49
2023/07/24 06:35:09;;;;;;;9.38;4.38;;;;;;;;;;4994636;28;20039;-49
2023/07/24 06:37:34;;;;;;;20.27;5.10;;;;;;;;;;4987567;28;20045;-49
2023/07/24 06:40:00;;;;;;;22.27;5.10;;;;;;;;;;4986437;28;20057;-49
2023/07/24 06:42:25;;;;;;;7.85;4.32;;;;;;;;;;4990910;28;20526;-48
2023/07/24 06:44:51;;;;;;;11.07;4.55;;;;;;;;;;5004795;28;20560;-54
2023/07/24 06:47:16;;;;;;;9.32;4.80;;;;;;;;;;4993884;28;20080;-48
2023/07/24 06:49:41;;;;;;;5.97;4.05;;;;;;;;;;4978567;28;20027;-47
2023/07/24 06:52:07;;;;;;;10.80;4.22;;;;;;;;;;4977431;28;20029;-52
2023/07/24 06:54:32;;;;;;;9.80;4.70;;;;;;;;;;4998073;28;20108;-47
2023/07/24 06:56:57;;;;;;;9.82;4.80;;;;;;;;;;4997651;28;20046;-51
2023/07/24 06:59:23;;;;;;;6.15;4.28;;;;;;;;;;4977541;28;20030;-51
2023/07/24 07:01:49;;;;;;;4.70;4.07;;;;;;;;;;4997298;28;20072;-50
2023/07/24 07:04:14;;;;;;;5.80;4.40;;;;;;;;;;4987748;28;20114;-50
2023/07/24 07:06:39;;;;;;;11.63;4.38;;;;;;;;;;4992116;28;20097;-47
2023/07/24 07:09:06;;;;;;;8.98;4.45;;;;;;;;;;4993010;28;20034;-48
2023/07/24 07:11:31;;;;;;;5.28;4.78;;;;;;;;;;4996600;28;20030;-51
2023/07/24 07:13:57;;;;;;;10.20;4.65;;;;;;;;;;4985052;28;20041;-48
2023/07/24 07:16:22;;;;;;;7.15;4.63;;;;;;;;;;5010341;28;20109;-47
2023/07/24 07:18:48;;;;;;;7.03;4.15;;;;;;;;;;4981408;28;20029;-49
2023/07/24 07:21:13;;;;;;;13.20;4.43;;;;;;;;;;4973686;28;20038;-49
2023/07/24 07:23:38;;;;;;;6.13;4.18;;;;;;;;;;4978051;28;20038;-46
2023/07/24 07:26:04;;;;;;;4.60;4.20;;;;;;;;;;4995789;28;20041;-46
2023/07/24 07:28:29;;;;;;;11.35;4.53;;;;;;;;;;4993916;28;20403;-47
2023/07/24 07:30:55;;;;;;;9.13;4.85;;;;;;;;;;4985102;28;20400;-46
2023/07/24 07:33:23;;;;;;;10.00;4.85;;;;;;;;;;4987977;28;20045;-47
2023/07/24 07:35:49;;;;;;;15.00;4.35;;;;;;;;;;4990918;28;20050;-46
2023/07/24 07:38:14;;;;;;;7.38;4.60;;;;;;;;;;4991467;28;20114;-50
2023/07/24 07:40:39;;;;;;;6.05;4.65;;;;;;;;;;4994188;28;20042;-49
2023/07/24 07:43:06;;;;;;;9.68;4.13;;;;;;;;;;4991724;28;20037;-48
2023/07/24 07:45:31;;;;;;;8.43;4.53;;;;;;;;;;4992716;28;20050;-48
2023/07/24 07:47:56;;;;;;;7.45;4.43;;;;;;;;;;5004258;28;20388;-47
2023/07/24 07:50:22;;;;;;;6.63;4.20;;;;;;;;;;4989111;28;20031;-49
2023/07/24 07:52:52;;;;;;;11.32;4.28;;;;;;;;;;4995573;28;20034;-48
2023/07/24 07:55:20;;;;;;;9.13;4.72;;;;;;;;;;4984409;28;20039;-47
2023/07/24 07:57:46;;;;;;;8.18;4.45;;;;;;;;;;4995125;28;20041;-48
2023/07/24 08:00:12;;;;;;;7.82;4.28;;;;;;;;;;4979567;28;20030;-46
2023/07/24 08:02:40;;;;;;;9.40;4.50;;;;;;;;;;4979091;28;20063;-47
2023/07/24 08:05:11;;;;;;;8.40;4.55;;;;;;;;;;4989884;28;20160;-50
2023/07/24 08:07:36;;;;;;;4.63;4.22;;;;;;;;;;4988457;28;20022;-48
2023/07/24 08:10:03;;;;;;;8.25;4.43;;;;;;;;;;4990506;28;20030;-46
2023/07/24 08:12:28;;;;;;;15.27;4.60;;;;;;;;;;4993733;28;20029;-48
2023/07/24 08:14:54;;;;;;;7.68;4.55;;;;;;;;;;4995271;28;20093;-48
2023/07/24 08:17:19;;;;;;;7.95;4.40;;;;;;;;;;4992206;28;20027;-47
2023/07/24 08:19:45;;;;;;;7.90;5.05;;;;;;;;;;4984115;28;20065;-48
2023/07/24 08:22:10;;;;;;;13.63;5.53;;;;;;;;;;4991392;28;20049;-46
2023/07/24 08:24:36;;;;;;;8.23;5.30;;;;;;;;;;4980453;28;20503;-51
2023/07/24 08:27:02;;;;;;;10.68;4.97;;;;;;;;;;4983613;28;20054;-49
2023/07/24 08:29:27;;;;;;;9.88;4.55;;;;;;;;;;4994940;28;20026;-50
2023/07/24 08:31:53;;;;;;;20.20;5.00;;;;;;;;;;4994849;28;20046;-47
2023/07/24 08:34:18;;;;;;;6.15;4.25;;;;;;;;;;4988479;28;20050;-47
2023/07/24 08:36:44;;;;;;;7.85;4.82;;;;;;;;;;4987250;28;20046;-48
2023/07/24 08:39:09;;;;;;;10.90;4.57;;;;;;;;;;4985181;28;20030;-47
2023/07/24 08:41:37;;;;;;;9.38;4.20;;;;;;;;;;4993204;28;20038;-50
2023/07/24 08:44:09;;;;;;;10.05;4.60;;;;;;;;;;4998529;28;20022;-48
2023/07/24 08:46:45;;;;;;;8.73;4.80;;;;;;;;;;4999913;28;20069;-52
2023/07/24 08:49:14;;;;;;;8.88;5.05;;;;;;;;;;4998552;28;20076;-47
2023/07/24 08:51:44;;;;;;;12.27;4.55;;;;;;;;;;4999178;28;20038;-48
2023/07/24 08:54:11;;;;;;;6.10;4.38;;;;;;;;;;4991071;28;20100;-50
2023/07/24 08:56:38;;;;;;;8.35;4.57;;;;;;;;;;4997176;28;20133;-47
2023/07/24 08:59:03;;;;;;;12.68;4.70;;;;;;;;;;4995097;28;20112;-48
2023/07/24 09:01:28;;;;;;;10.93;4.93;;;;;;;;;;4999307;28;20062;-47
2023/07/24 09:03:54;;;;;;;13.15;4.80;;;;;;;;;;4994998;28;20057;-48
2023/07/24 09:06:19;;;;;;;15.52;4.88;;;;;;;;;;4999095;28;20073;-49
2023/07/24 09:08:45;;;;;;;5.47;4.65;;;;;;;;;;4997569;28;20043;-49
2023/07/24 09:11:13;;;;;;;9.75;5.32;;;;;;;;;;4979948;28;20045;-47
2023/07/24 09:13:42;;;;;;;10.88;4.95;;;;;;;;;;4999596;28;20022;-50
2023/07/24 09:16:08;;;;;;;10.52;4.80;;;;;;;;;;4986164;28;20117;-48
2023/07/24 09:18:41;;;;;;;7.32;4.70;;;;;;;;;;4995842;28;20065;-47
2023/07/24 09:21:07;;;;;;;6.43;4.50;;;;;;;;;;4996782;28;20097;-48
2023/07/24 09:23:32;;;;;;;10.45;4.70;;;;;;;;;;4999172;28;20030;-48
2023/07/24 09:25:58;;;;;;;10.20;4.93;;;;;;;;;;4994020;28;20046;-48
2023/07/24 09:28:23;;;;;;;6.38;4.50;;;;;;;;;;4981761;28;20526;-47
2023/07/24 09:30:57;;;;;;;9.93;4.80;;;;;;;;;;4998855;28;20540;-47
2023/07/24 09:33:33;;;;;;;13.52;4.82;;;;;;;;;;4997775;28;20022;-47
2023/07/24 09:36:00;;;;;;;11.77;4.82;;;;;;;;;;4987365;28;20050;-50
2023/07/24 09:38:26;;;;;;;10.70;4.90;;;;;;;;;;4984454;28;20038;-49
2023/07/24 09:40:52;;;;;;;12.57;5.07;;;;;;;;;;4994101;28;20042;-47
2023/07/24 09:43:20;;;;;;;8.85;4.35;;;;;;;;;;4984045;28;20034;-51
2023/07/24 09:45:46;;;;;;;11.15;4.72;;;;;;;;;;4994802;28;20045;-50
2023/07/24 09:48:14;;;;;;;8.25;4.70;;;;;;;;;;4997602;28;20500;-49
2023/07/24 09:50:41;;;;;;;10.82;4.97;;;;;;;;;;4987688;28;20038;-49
2023/07/24 09:53:17;;;;;;;8.00;4.78;;;;;;;;;;4985323;28;20082;-47
2023/07/24 09:55:57;;;;;;;6.20;5.32;;;;;;;;;;4986930;28;20027;-49
2023/07/24 09:58:24;;;;;;;9.27;5.22;;;;;;;;;;4991845;28;20030;-48
2023/07/24 10:00:50;;;;;;;10.25;5.35;;;;;;;;;;4990693;28;20066;-47
2023/07/24 10:03:16;;;;;;;8.60;4.82;;;;;;;;;;4995162;28;20046;-47
2023/07/24 10:05:45;;;;;;;10.15;4.85;;;;;;;;;;4983707;28;20035;-50
2023/07/24 10:08:11;;;;;;;12.35;5.68;;;;;;;;;;4995163;28;20388;-47
2023/07/24 10:10:38;;;;;;;7.20;5.30;;;;;;;;;;4991977;28;20030;-50
2023/07/24 10:13:04;;;;;;;10.55;4.97;;;;;;;;;;4991962;28;20067;-47
2023/07/24 10:15:31;;;;;;;12.85;4.72;;;;;;;;;;4978541;28;20458;-47
2023/07/24 10:18:07;;;;;;;12.82;5.32;;;;;;;;;;4995317;28;20043;-48
2023/07/24 10:20:38;;;;;;;15.40;6.00;;;;;;;;;;4993966;28;20034;-46
2023/07/24 10:23:04;;;;;;;13.88;6.18;;;;;;;;;;4995559;28;20030;-47
2023/07/24 10:25:34;;;;;;;12.73;5.85;;;;;;;;;;4996997;28;20129;-47
2023/07/24 10:28:07;;;;;;;9.68;5.35;;;;;;;;;;4992919;28;20030;-48
2023/07/24 10:30:33;;;;;;;15.93;6.00;;;;;;;;;;4986934;28;20504;-48
2023/07/24 10:33:13;;;;;;;17.52;5.72;;;;;;;;;;4986980;28;20105;-46
2023/07/24 10:35:40;;;;;;;11.55;5.35;;;;;;;;;;4948830;28;1193452;-46
2023/07/24 10:38:06;;;;;;;9.25;5.68;;;;;;;;;;4978099;28;20050;-49
2023/07/24 10:40:33;;;;;;;12.25;5.47;;;;;;;;;;4984880;28;20046;-47
2023/07/24 10:43:09;;;;;;;10.88;4.95;;;;;;;;;;4987984;28;20105;-47
2023/07/24 10:45:49;;;;;;;17.33;5.65;;;;;;;;;;4978961;28;20054;-47
2023/07/24 10:48:16;;;;;;;10.90;5.32;;;;;;;;;;4990631;28;20563;-46
2023/07/24 10:50:46;;;;;;;10.38;5.45;;;;;;;;;;4995693;28;20042;-47
2023/07/24 10:53:15;;;;;;;13.73;5.57;;;;;;;;;;4984250;28;20026;-47
2023/07/24 10:55:42;;;;;;;10.20;5.22;;;;;;;;;;5003903;28;20038;-47
2023/07/24 10:58:08;;;;;;;13.10;5.47;;;;;;;;;;4984821;28;20033;-51
2023/07/24 11:00:33;;;;;;;11.88;5.65;;;;;;;;;;4990944;28;20041;-49
2023/07/24 11:02:59;;;;;;;14.65;5.40;;;;;;;;;;4993123;28;20042;-50
2023/07/24 11:05:24;;;;;;;14.30;5.38;;;;;;;;;;4978494;28;20049;-45
2023/07/24 11:07:50;;;;;;;11.75;5.60;;;;;;;;;;4995397;28;20542;-49
2023/07/24 11:10:21;;;;;;;14.32;5.50;;;;;;;;;;4972619;28;20798;-45
2023/07/24 11:12:46;;;;;;;17.30;6.38;;;;;;;;;;4987456;28;20033;-49
2023/07/24 11:15:13;;;;;;;14.25;5.65;;;;;;;;;;4993584;28;20038;-51
2023/07/24 11:17:40;;;;;;;22.13;5.38;;;;;;;;;;4987787;28;20072;-47
2023/07/24 11:20:13;;;;;;;16.70;5.90;;;;;;;;;;4991117;28;20097;-46
2023/07/24 11:22:41;;;;;;;13.30;6.30;;;;;;;;;;4987249;28;20061;-46
2023/07/24 11:25:07;;;;;;;22.45;5.22;;;;;;;;;;4988705;28;20035;-44
2023/07/24 11:27:37;;;;;;;16.13;5.50;;;;;;;;;;4987314;28;20023;-47
2023/07/24 11:30:02;;;;;;;13.95;5.97;;;;;;;;;;4988793;28;20043;-49
2023/07/24 11:32:28;;;;;;;12.80;5.60;;;;;;;;;;4996999;28;20026;-45
2023/07/24 11:34:53;;;;;;;20.15;5.78;;;;;;;;;;4994665;28;20050;-47
2023/07/24 11:37:19;;;;;;;18.02;6.00;;;;;;;;;;5007603;28;20508;-44
2023/07/24 11:40:08;;;;;;;16.92;5.68;;;;;;;;;;4989223;28;20125;-49
2023/07/24 11:42:37;;;;;;;17.88;5.88;;;;;;;;;;4997144;28;20034;-46
2023/07/24 11:45:03;;;;;;;13.85;5.20;;;;;;;;;;4980371;28;20043;-48
2023/07/24 11:47:29;;;;;;;15.35;5.47;;;;;;;;;;4993086;28;20176;-47
2023/07/24 11:50:01;;;;;;;18.13;6.40;;;;;;;;;;4993253;28;20061;-48
2023/07/24 11:52:44;;;;;;;16.55;5.63;;;;;;;;;;4979744;28;20027;-47
2023/07/24 11:55:15;;;;;;;10.55;5.47;;;;;;;;;;4993716;28;20043;-47
2023/07/24 11:57:41;;;;;;;17.33;5.93;;;;;;;;;;4992809;28;20448;-48
2023/07/24 12:00:20;;;;;;;11.32;5.93;;;;;;;;;;4995585;28;20034;-48
2023/07/24 12:02:46;;;;;;;13.90;5.85;;;;;;;;;;4995693;28;20042;-46
2023/07/24 12:05:11;;;;;;;14.95;5.72;;;;;;;;;;4989561;28;20043;-44
2023/07/24 12:07:37;;;;;;;14.55;5.43;;;;;;;;;;4976950;28;20062;-50
2023/07/24 12:10:04;;;;;;;18.60;5.30;;;;;;;;;;4992340;28;20038;-48
2023/07/24 12:12:40;;;;;;;22.05;6.38;;;;;;;;;;4995581;28;20069;-46
2023/07/24 12:15:06;;;;;;;9.35;4.93;;;;;;;;;;4999894;28;20035;-45
2023/07/24 12:17:31;;;;;;;12.40;5.65;;;;;;;;;;4981078;28;20053;-46
2023/07/24 12:19:57;;;;;;;15.00;5.85;;;;;;;;;;4981397;28;20046;-49
2023/07/24 12:22:22;;;;;;;16.60;5.20;;;;;;;;;;4988980;28;20484;-48
2023/07/24 12:24:48;;;;;;;10.88;4.97;;;;;;;;;;4987301;28;20083;-48
2023/07/24 12:27:13;;;;;;;26.35;5.70;;;;;;;;;;4985227;28;20048;-45
2023/07/24 12:29:38;;;;;;;12.63;5.82;;;;;;;;;;4985742;28;20039;-44
2023/07/24 12:32:04;;;;;;;12.75;5.38;;;;;;;;;;4995810;28;20030;-47
2023/07/24 12:34:30;;;;;;;17.98;5.72;;;;;;;;;;4990646;28;20101;-45
2023/07/24 12:36:55;;;;;;;14.73;4.97;;;;;;;;;;4980669;28;20034;-46
2023/07/24 12:39:20;;;;;;;14.40;6.03;;;;;;;;;;4989790;28;20042;-48
2023/07/24 12:41:46;;;;;;;19.10;5.85;;;;;;;;;;4988408;28;20051;-51
2023/07/24 12:44:11;;;;;;;15.85;5.78;;;;;;;;;;4989737;28;20042;-48
2023/07/24 12:46:36;;;;;;;14.88;5.57;;;;;;;;;;4995708;28;20129;-47
2023/07/24 12:49:02;;;;;;;15.50;5.88;;;;;;;;;;4986186;28;20066;-49
2023/07/24 12:51:27;;;;;;;22.45;6.53;;;;;;;;;;4993425;28;20043;-47
2023/07/24 12:53:53;;;;;;;18.48;6.45;;;;;;;;;;4996971;28;20062;-51
2023/07/24 12:56:18;;;;;;;19.55;6.38;;;;;;;;;;4997856;28;20124;-47
2023/07/24 12:58:44;;;;;;;12.23;5.78;;;;;;;;;;4994314;28;20113;-45
2023/07/24 13:01:09;;;;;;;17.63;7.07;;;;;;;;;;4990854;28;20046;-48
2023/07/24 13:03:35;;;;;;;10.52;6.18;;;;;;;;;;4985880;28;20062;-51
2023/07/24 13:06:00;;;;;;;13.98;6.68;;;;;;;;;;4995740;28;20038;-51
2023/07/24 13:08:26;;;;;;;12.00;6.57;;;;;;;;;;4993297;28;20053;-44
2023/07/24 13:10:51;;;;;;;10.85;6.40;;;;;;;;;;4983559;28;20396;-48
2023/07/24 13:13:17;;;;;;;13.52;6.63;;;;;;;;;;4990323;28;20022;-45
2023/07/24 13:15:42;;;;;;;15.65;6.70;;;;;;;;;;4993791;28;20505;-45
2023/07/24 13:18:08;;;;;;;14.82;7.25;;;;;;;;;;4993785;28;20038;-48
2023/07/24 13:20:33;;;;;;;13.63;6.10;;;;;;;;;;4994855;28;20046;-48
2023/07/24 13:22:59;;;;;;;13.25;6.70;;;;;;;;;;4975815;28;20030;-47
2023/07/24 13:25:24;;;;;;;16.92;6.72;;;;;;;;;;4989365;28;20046;-49
2023/07/24 13:27:50;;;;;;;13.32;6.50;;;;;;;;;;4987435;28;20655;-48
2023/07/24 13:30:16;;;;;;;17.88;6.68;;;;;;;;;;4988057;28;20054;-47
2023/07/24 13:32:41;;;;;;;12.80;6.65;;;;;;;;;;4998315;28;20463;-47
2023/07/24 13:35:07;;;;;;;12.88;6.40;;;;;;;;;;4992493;28;20045;-46
2023/07/24 13:37:32;;;;;;;21.95;7.15;;;;;;;;;;4995781;28;20029;-46
2023/07/24 13:39:58;;;;;;;17.58;6.85;;;;;;;;;;4982400;28;20046;-46
2023/07/24 13:42:23;;;;;;;17.60;6.88;;;;;;;;;;4996984;28;20026;-48
2023/07/24 13:44:48;;;;;;;11.00;6.00;;;;;;;;;;5009465;28;20064;-47
2023/07/24 13:47:14;;;;;;;11.48;6.00;;;;;;;;;;4995497;28;20505;-45
2023/07/24 13:49:39;;;;;;;16.60;6.68;;;;;;;;;;4997274;28;20074;-48
2023/07/24 13:52:05;;;;;;;15.73;7.00;;;;;;;;;;4998673;28;20125;-45
2023/07/24 13:54:30;;;;;;;16.25;6.45;;;;;;;;;;4995564;28;20030;-45
2023/07/24 13:56:56;;;;;;;15.25;6.03;;;;;;;;;;4990167;28;20053;-49
2023/07/24 13:59:21;;;;;;;12.05;6.07;;;;;;;;;;4995139;28;20102;-50
2023/07/24 14:01:47;;;;;;;18.35;6.80;;;;;;;;;;4985909;28;20097;-49
2023/07/24 14:04:14;;;;;;;10.95;6.43;;;;;;;;;;4994419;28;20492;-47
2023/07/24 14:06:39;;;;;;;13.13;6.50;;;;;;;;;;4994137;28;20121;-48
2023/07/24 14:09:05;;;;;;;17.20;6.88;;;;;;;;;;4996831;28;20058;-47
2023/07/24 14:11:30;;;;;;;15.05;7.00;;;;;;;;;;4994960;28;20035;-48
2023/07/24 14:13:55;;;;;;;15.48;6.82;;;;;;;;;;4995603;28;20041;-47
2023/07/24 14:16:21;;;;;;;19.85;6.93;;;;;;;;;;4996969;28;20041;-50
2023/07/24 14:18:46;;;;;;;22.25;7.25;;;;;;;;;;4996130;28;20038;-50
2023/07/24 14:21:11;;;;;;;16.75;6.60;;;;;;;;;;4997221;28;20062;-48
2023/07/24 14:23:37;;;;;;;15.90;6.82;;;;;;;;;;4985846;28;20040;-49
2023/07/24 14:26:02;;;;;;;13.88;6.05;;;;;;;;;;4974602;28;20039;-46
2023/07/24 14:28:28;;;;;;;10.65;6.20;;;;;;;;;;4998301;28;20089;-48
2023/07/24 14:30:53;;;;;;;12.13;6.55;;;;;;;;;;4997723;28;20133;-45